Terminal Aerodrome Forecast
Issued by NWS

Home | Current Version | Previous Version | Text Only | Print | Product List | Glossary On
Versions: 1 2 3 4 5 6 7 8 9 10 11 12
996
FTUS44 KTSA 131720
TAFRVS
TAF
KRVS 131720Z 1318/1418 31006KT P6SM SKC
     FM132100 34008KT P6SM SCT250
     FM140100 35005KT P6SM SCT250
     FM141300 36007KT P6SM SCT150 BKN250=

USA.gov is the U.S. government's official web portal to all federal, state and local government web resources and services.